Time;durP1;ratioP1;P1;durP2;ratioP2;P2;SDS_P1;SDS_P2;PMS_P1;PMS_P2;Temp;Humidity;BMP_temperature;BMP_pressure;BME280_temperature;BME280_humidity;BME280_pressure;Samples;Min_cycle;Max_cycle;Signal;HPM_P1;HPM_P2
2022/04/29 00:01:15;;;;;;;16.83;8.10;;;;;;;9.32;70.02;102158.94;4999758;28;20875;-70
2022/04/29 00:03:41;;;;;;;10.80;7.60;;;;;;;9.37;70.21;102170.09;4995874;28;20533;-70
2022/04/29 00:06:06;;;;;;;12.38;7.53;;;;;;;9.31;70.27;102167.81;4997367;28;20011;-71
2022/04/29 00:08:31;;;;;;;12.32;8.40;;;;;;;9.23;70.27;102166.47;4957517;28;20002;-70
2022/04/29 00:10:57;;;;;;;11.95;8.25;;;;;;;9.13;70.53;102169.78;4944835;28;20049;-71
2022/04/29 00:13:22;;;;;;;11.27;8.32;;;;;;;9.18;70.63;102171.22;4964865;28;20022;-72
2022/04/29 00:15:48;;;;;;;10.35;7.70;;;;;;;9.14;70.75;102167.06;4972749;28;20001;-72
2022/04/29 00:18:13;;;;;;;10.73;8.25;;;;;;;9.17;69.96;102172.13;4985072;28;20014;-71
2022/04/29 00:20:38;;;;;;;12.45;8.18;;;;;;;9.00;70.70;102167.03;5017938;28;20956;-71
2022/04/29 00:23:04;;;;;;;13.07;7.65;;;;;;;9.22;70.27;102169.22;5005958;28;20422;-72
2022/04/29 00:25:30;;;;;;;11.82;8.13;;;;;;;9.22;69.92;102166.56;4980964;28;20091;-71
2022/04/29 00:27:56;;;;;;;10.75;8.07;;;;;;;9.09;70.84;102169.09;4963232;28;20022;-71
2022/04/29 00:30:21;;;;;;;10.23;8.02;;;;;;;8.94;70.94;102171.72;4963923;28;20420;-72
2022/04/29 00:32:47;;;;;;;10.82;8.52;;;;;;;9.04;70.97;102166.75;4979993;28;20006;-71
2022/04/29 00:35:13;;;;;;;13.45;8.05;;;;;;;9.09;70.51;102177.03;4991111;28;20888;-71
2022/04/29 00:37:45;;;;;;;9.73;8.18;;;;;;;9.08;70.79;102178.84;4983276;28;20040;-70
2022/04/29 00:40:16;;;;;;;10.95;8.32;;;;;;;9.20;70.18;102177.22;4984178;28;20008;-69
2022/04/29 00:42:41;;;;;;;12.77;8.77;;;;;;;9.25;69.30;102172.53;4982749;28;20098;-70
2022/04/29 00:45:07;;;;;;;11.25;8.40;;;;;;;9.34;68.93;102173.75;4976485;28;20022;-70
2022/04/29 00:47:33;;;;;;;9.68;8.27;;;;;;;8.98;70.16;102174.19;4967428;28;20030;-69
2022/04/29 00:49:58;;;;;;;14.52;7.78;;;;;;;8.82;71.09;102169.81;5000203;28;20150;-70
2022/04/29 00:52:23;;;;;;;11.10;7.95;;;;;;;9.00;70.90;102167.88;4979985;28;20026;-70
2022/04/29 00:54:52;;;;;;;11.23;8.20;;;;;;;8.74;71.55;102158.84;4966823;28;20425;-70
2022/04/29 00:57:26;;;;;;;17.88;8.15;;;;;;;8.71;71.32;102156.38;4982671;28;20010;-69
2022/04/29 01:00:05;;;;;;;10.73;7.55;;;;;;;8.58;71.94;102158.91;4966175;28;20032;-70
2022/04/29 01:02:31;;;;;;;12.70;8.02;;;;;;;8.43;72.60;102150.91;4963308;28;20835;-70
2022/04/29 01:05:01;;;;;;;17.05;7.75;;;;;;;8.40;72.66;102150.22;4986375;28;20776;-70
2022/04/29 01:07:30;;;;;;;12.05;7.78;;;;;;;8.42;72.68;102151.00;4941091;28;20071;-70
2022/04/29 01:09:55;;;;;;;10.82;7.85;;;;;;;8.27;73.21;102139.50;4950534;28;20010;-69
2022/04/29 01:12:22;;;;;;;9.23;7.93;;;;;;;8.51;72.35;102139.09;4985494;28;20952;-70
2022/04/29 01:14:47;;;;;;;13.27;8.05;;;;;;;8.47;72.49;102141.03;4981162;28;20122;-69
2022/04/29 01:17:13;;;;;;;11.90;7.85;;;;;;;8.32;72.78;102133.97;4984868;28;20017;-70
2022/04/29 01:19:39;;;;;;;12.23;8.38;;;;;;;8.18;73.58;102137.38;4983915;28;20086;-69
2022/04/29 01:22:04;;;;;;;11.35;8.15;;;;;;;8.20;73.10;102130.25;5000746;28;20928;-70
2022/04/29 01:24:29;;;;;;;8.90;7.80;;;;;;;8.14;73.87;102120.91;5023537;28;20097;-70
2022/04/29 01:26:55;;;;;;;13.50;8.30;;;;;;;8.11;73.86;102118.44;5005642;28;20082;-70
2022/04/29 01:29:20;;;;;;;8.77;7.93;;;;;;;8.00;74.09;102120.84;5006511;28;20017;-70
2022/04/29 01:31:46;;;;;;;11.05;8.27;;;;;;;7.94;74.28;102118.53;4988432;28;20025;-69
2022/04/29 01:34:11;;;;;;;10.20;8.43;;;;;;;8.13;73.63;102121.00;4996989;28;20136;-69
2022/04/29 01:36:37;;;;;;;9.05;8.15;;;;;;;8.29;73.04;102116.56;5007874;28;20695;-70
2022/04/29 01:39:02;;;;;;;9.18;8.20;;;;;;;8.09;73.55;102112.41;4991330;28;20804;-70
2022/04/29 01:41:28;;;;;;;8.95;8.00;;;;;;;7.89;74.30;102111.72;4983240;28;20097;-70
2022/04/29 01:43:53;;;;;;;9.68;8.10;;;;;;;7.81;74.74;102113.97;4984782;28;20010;-69
2022/04/29 01:46:18;;;;;;;11.25;8.23;;;;;;;7.77;74.95;102112.44;4992965;28;20022;-70
2022/04/29 01:48:44;;;;;;;12.35;8.60;;;;;;;7.95;74.32;102107.06;5011990;28;20021;-70
2022/04/29 01:51:09;;;;;;;10.00;8.02;;;;;;;8.02;74.04;102108.41;5004970;28;20897;-69
2022/04/29 01:53:34;;;;;;;12.82;8.25;;;;;;;8.08;73.69;102106.28;4974707;28;20564;-69
2022/04/29 01:56:00;;;;;;;9.35;8.43;;;;;;;8.01;73.94;102099.66;5004349;28;20757;-69
2022/04/29 01:58:25;;;;;;;11.88;8.25;;;;;;;7.90;74.44;102105.53;5009836;28;20926;-70
2022/04/29 02:00:51;;;;;;;14.88;8.43;;;;;;;7.95;74.42;102107.06;4976189;28;20002;-69
2022/04/29 02:03:17;;;;;;;13.35;8.85;;;;;;;7.84;74.65;102105.00;5005778;28;20014;-70
2022/04/29 02:05:42;;;;;;;9.80;8.80;;;;;;;7.80;74.76;102100.84;5025399;28;20108;-69
2022/04/29 02:08:09;;;;;;;11.65;8.68;;;;;;;7.69;74.76;102099.66;4952841;28;20386;-69
2022/04/29 02:10:35;;;;;;;11.10;8.88;;;;;;;7.69;75.50;102096.19;4923357;28;20089;-70
2022/04/29 02:13:01;;;;;;;10.27;9.18;;;;;;;7.62;75.78;102094.81;4951385;28;20037;-70
2022/04/29 02:15:26;;;;;;;10.65;8.75;;;;;;;7.71;75.55;102094.31;4979507;28;21215;-70
2022/04/29 02:17:51;;;;;;;13.70;8.73;;;;;;;7.82;74.91;102094.56;4944962;28;20976;-69
2022/04/29 02:20:17;;;;;;;14.85;9.57;;;;;;;7.75;75.04;102101.09;4927020;28;20006;-69
2022/04/29 02:22:42;;;;;;;12.73;9.23;;;;;;;7.70;76.13;102092.63;4953946;28;20034;-70
2022/04/29 02:25:08;;;;;;;12.80;9.35;;;;;;;7.65;75.85;102090.22;4942247;28;20010;-70
2022/04/29 02:27:35;;;;;;;12.20;9.23;;;;;;;7.67;75.90;102085.75;4943555;28;20424;-70
2022/04/29 02:30:01;;;;;;;10.95;9.02;;;;;;;7.55;76.18;102087.25;4963013;28;20061;-69
2022/04/29 02:32:27;;;;;;;12.68;9.25;;;;;;;7.51;76.21;102088.34;4951768;28;20263;-69
2022/04/29 02:34:52;;;;;;;12.00;9.68;;;;;;;7.55;76.53;102087.25;4941132;28;20263;-70
2022/04/29 02:37:18;;;;;;;10.77;8.85;;;;;;;7.70;76.28;102084.72;4947797;28;20139;-69
2022/04/29 02:39:44;;;;;;;12.38;9.23;;;;;;;7.97;75.13;102081.47;4944000;28;20022;-70
2022/04/29 02:42:09;;;;;;;10.65;9.30;;;;;;;8.08;75.01;102077.28;4962642;28;20040;-70
2022/04/29 02:44:34;;;;;;;17.25;9.10;;;;;;;8.19;74.56;102078.44;5012669;28;20388;-69
2022/04/29 02:47:09;;;;;;;13.25;9.07;;;;;;;7.98;74.79;102076.13;4984523;28;20380;-69
2022/04/29 02:49:38;;;;;;;9.65;8.77;;;;;;;7.82;75.61;102080.53;4949557;28;20251;-69
2022/04/29 02:52:06;;;;;;;11.00;9.10;;;;;;;7.76;75.86;102079.09;4977692;28;20010;-70
2022/04/29 02:54:31;;;;;;;13.98;9.48;;;;;;;7.68;76.25;102078.66;4982148;28;20134;-70
2022/04/29 02:56:57;;;;;;;10.57;9.40;;;;;;;7.75;76.49;102072.13;4966425;28;20019;-70
2022/04/29 02:59:22;;;;;;;10.30;8.82;;;;;;;7.77;76.62;102078.19;4965964;28;20998;-69
2022/04/29 03:01:48;;;;;;;14.32;9.10;;;;;;;7.74;76.97;102080.94;5014598;28;20191;-69
2022/04/29 03:04:13;;;;;;;13.30;8.90;;;;;;;7.81;76.66;102081.47;4984279;28;20354;-71
2022/04/29 03:06:38;;;;;;;12.00;9.73;;;;;;;7.77;76.43;102078.19;4983148;28;20084;-71
2022/04/29 03:09:04;;;;;;;14.32;8.98;;;;;;;7.77;76.90;102079.94;4983870;28;20017;-71
2022/04/29 03:11:29;;;;;;;13.75;9.88;;;;;;;7.71;77.39;102078.50;4988147;28;20032;-70
2022/04/29 03:13:55;;;;;;;15.60;9.65;;;;;;;7.75;77.21;102080.03;4986604;28;20140;-70
2022/04/29 03:16:20;;;;;;;13.77;9.57;;;;;;;7.78;76.83;102085.13;4983282;28;20021;-70
2022/04/29 03:18:45;;;;;;;13.50;9.40;;;;;;;7.75;77.06;102074.75;4980293;28;20006;-70
2022/04/29 03:21:11;;;;;;;15.80;9.90;;;;;;;7.77;76.86;102072.91;4989588;28;20835;-70
2022/04/29 03:23:36;;;;;;;15.63;9.13;;;;;;;7.72;77.48;102074.94;4997519;28;20535;-69
2022/04/29 03:26:04;;;;;;;11.10;9.30;;;;;;;7.69;77.60;102075.13;4980634;28;20025;-70
2022/04/29 03:28:29;;;;;;;10.85;9.27;;;;;;;7.66;77.76;102070.84;4985857;28;20017;-69
2022/04/29 03:30:55;;;;;;;11.57;9.27;;;;;;;7.63;77.67;102070.16;4984689;28;20851;-69
2022/04/29 03:33:20;;;;;;;10.48;9.15;;;;;;;7.64;77.78;102066.59;5012945;28;21487;-69
2022/04/29 03:35:47;;;;;;;11.90;9.32;;;;;;;7.67;77.77;102062.03;5017487;28;20017;-72
2022/04/29 03:38:12;;;;;;;12.30;8.57;;;;;;;7.60;78.32;102058.03;4983305;28;20017;-70
2022/04/29 03:40:38;;;;;;;12.00;9.75;;;;;;;7.70;77.81;102071.56;5005437;28;20013;-70
2022/04/29 03:43:03;;;;;;;12.95;9.30;;;;;;;7.69;77.90;102062.78;4988386;28;20044;-70
2022/04/29 03:45:29;;;;;;;11.95;9.50;;;;;;;7.66;78.38;102062.13;4983673;28;20052;-69
2022/04/29 03:47:55;;;;;;;12.13;9.98;;;;;;;7.64;78.27;102066.59;4985796;28;20187;-70
2022/04/29 03:50:23;;;;;;;12.38;9.30;;;;;;;7.80;77.56;102063.94;4967694;28;20037;-70
2022/04/29 03:53:15;;;;;;;12.13;9.27;;;;;;;7.93;76.96;102061.50;4986241;28;20017;-69
2022/04/29 03:55:40;;;;;;;13.50;9.27;;;;;;;7.81;77.33;102055.13;4985482;28;20017;-69
2022/04/29 03:58:06;;;;;;;10.52;8.85;;;;;;;7.74;77.31;102055.47;5002077;28;20406;-70
2022/04/29 04:00:32;;;;;;;12.73;9.43;;;;;;;7.77;77.50;102058.84;4985202;28;20826;-70
2022/04/29 04:03:03;;;;;;;15.00;9.73;;;;;;;7.75;77.62;102058.94;4985028;28;20129;-70
2022/04/29 04:05:30;;;;;;;14.50;9.60;;;;;;;7.72;77.71;102057.31;4992808;28;20010;-70
2022/04/29 04:07:56;;;;;;;9.98;8.98;;;;;;;7.59;78.23;102058.09;5003086;28;20121;-69
2022/04/29 04:10:21;;;;;;;11.30;8.80;;;;;;;7.66;78.31;102051.56;4986999;28;20039;-70
2022/04/29 04:12:51;;;;;;;10.43;9.05;;;;;;;7.66;78.10;102056.84;5004366;28;20072;-71
2022/04/29 04:15:21;;;;;;;12.27;9.68;;;;;;;7.67;78.10;102055.88;4987311;28;20689;-70
2022/04/29 04:17:46;;;;;;;12.38;9.60;;;;;;;7.73;77.80;102053.78;5003304;28;20420;-70
2022/04/29 04:20:13;;;;;;;11.63;9.57;;;;;;;7.70;78.00;102061.00;4987677;28;20017;-70
2022/04/29 04:22:38;;;;;;;10.95;9.18;;;;;;;7.71;78.10;102060.94;5003362;28;20121;-69
2022/04/29 04:25:05;;;;;;;11.18;9.68;;;;;;;7.68;78.26;102057.59;4970280;28;20010;-71
2022/04/29 04:27:30;;;;;;;12.50;9.30;;;;;;;7.65;78.55;102055.13;5004228;28;20017;-70
2022/04/29 04:29:56;;;;;;;11.13;9.70;;;;;;;7.65;78.42;102047.22;5002955;28;20195;-71
2022/04/29 04:32:22;;;;;;;10.15;9.15;;;;;;;7.71;78.21;102068.81;4983510;28;20025;-70
2022/04/29 04:34:50;;;;;;;10.57;9.45;;;;;;;7.75;78.12;102064.22;4966015;28;20005;-71
2022/04/29 04:37:23;;;;;;;11.65;9.63;;;;;;;7.98;77.17;102072.63;5019411;28;20141;-70
2022/04/29 04:39:48;;;;;;;12.73;9.23;;;;;;;7.83;77.79;102062.00;5021116;28;20026;-71
2022/04/29 04:42:14;;;;;;;11.38;9.07;;;;;;;7.87;78.05;102075.88;5021971;28;20036;-70
2022/04/29 04:44:39;;;;;;;14.88;9.50;;;;;;;7.83;77.98;102072.56;5041135;28;20024;-71
2022/04/29 04:47:08;;;;;;;11.82;9.88;;;;;;;7.84;78.13;102071.63;5011402;28;20261;-70
2022/04/29 04:49:34;;;;;;;12.95;9.88;;;;;;;7.84;78.23;102069.00;5007302;28;20027;-71
2022/04/29 04:51:59;;;;;;;10.82;9.48;;;;;;;7.84;78.09;102071.63;4993092;28;20009;-70
2022/04/29 04:54:25;;;;;;;12.15;10.15;;;;;;;7.85;77.96;102065.38;5029241;28;20013;-71
2022/04/29 04:56:50;;;;;;;16.75;10.10;;;;;;;7.82;78.57;102070.84;4993926;28;20237;-71
2022/04/29 04:59:16;;;;;;;11.98;9.95;;;;;;;7.85;78.80;102069.81;4994103;28;20157;-71
2022/04/29 05:01:41;;;;;;;13.68;10.20;;;;;;;7.89;78.73;102074.81;4995207;28;20037;-71
2022/04/29 05:04:07;;;;;;;15.75;10.80;;;;;;;7.97;78.55;102069.13;4997213;28;20033;-71
2022/04/29 05:06:32;;;;;;;12.60;10.23;;;;;;;8.04;78.28;102065.22;4978436;28;20174;-70
2022/04/29 05:08:57;;;;;;;14.98;10.82;;;;;;;8.03;79.01;102067.94;5009806;28;20021;-70
2022/04/29 05:11:23;;;;;;;12.35;9.95;;;;;;;8.12;78.72;102066.56;5007545;28;20609;-71
2022/04/29 05:13:48;;;;;;;14.25;10.25;;;;;;;8.16;78.70;102063.66;4985006;28;20017;-71
2022/04/29 05:16:14;;;;;;;10.98;9.90;;;;;;;8.20;78.58;102062.53;4981331;28;20025;-70
2022/04/29 05:18:39;;;;;;;13.05;9.13;;;;;;;8.25;78.17;102063.13;5019288;28;20043;-72
2022/04/29 05:21:04;;;;;;;10.75;9.65;;;;;;;8.32;78.30;102068.03;5024465;28;20025;-70
2022/04/29 05:23:30;;;;;;;11.30;10.13;;;;;;;8.34;78.28;102060.91;4992678;28;20564;-70
2022/04/29 05:25:55;;;;;;;13.90;9.90;;;;;;;8.45;78.13;102074.34;5003435;28;20275;-70
2022/04/29 05:28:21;;;;;;;15.52;9.80;;;;;;;8.54;77.86;102067.66;4984231;28;20306;-71
2022/04/29 05:30:46;;;;;;;11.32;9.57;;;;;;;8.57;78.06;102068.34;4962205;28;20077;-70
2022/04/29 05:33:12;;;;;;;10.65;9.55;;;;;;;8.64;77.68;102066.16;4981745;28;20005;-70
2022/04/29 05:35:38;;;;;;;12.48;9.82;;;;;;;8.68;77.50;102069.50;4977917;28;20507;-70
2022/04/29 05:38:03;;;;;;;12.13;9.18;;;;;;;8.76;78.12;102061.97;4977366;28;20065;-70
2022/04/29 05:43:12;;;;;;;11.95;9.10;;;;;;;9.15;76.48;102068.41;4959862;28;20278;-70
2022/04/29 05:45:38;;;;;;;13.60;10.05;;;;;;;9.20;76.58;102076.88;4965843;28;20014;-73
2022/04/29 05:48:04;;;;;;;10.55;9.43;;;;;;;9.22;76.29;102077.63;4977654;28;20756;-71
2022/04/29 05:50:29;;;;;;;14.13;9.93;;;;;;;9.32;76.27;102085.84;4979964;28;20018;-70
2022/04/29 05:52:54;;;;;;;16.67;10.45;;;;;;;9.42;75.18;102081.69;4946277;28;20010;-70
2022/04/29 05:55:20;;;;;;;14.80;10.75;;;;;;;9.61;74.77;102076.06;4978370;28;20410;-71
2022/04/29 05:57:46;;;;;;;16.05;10.65;;;;;;;9.72;74.35;102075.38;4960542;28;20016;-71
2022/04/29 06:00:11;;;;;;;11.63;10.30;;;;;;;9.72;73.85;102072.75;4977099;28;20006;-71
2022/04/29 06:02:38;;;;;;;13.93;10.85;;;;;;;9.82;73.54;102073.00;4958165;28;20025;-70
2022/04/29 06:05:04;;;;;;;14.02;10.55;;;;;;;9.93;71.81;102073.16;4976451;28;20075;-73
2022/04/29 06:07:30;;;;;;;14.32;10.75;;;;;;;9.97;72.80;102074.66;4958042;28;20271;-72
2022/04/29 06:09:55;;;;;;;13.60;11.02;;;;;;;10.02;72.61;102065.56;4956993;28;20017;-72
2022/04/29 06:12:20;;;;;;;12.98;10.38;;;;;;;10.12;73.42;102069.28;4960091;28;20102;-72
2022/04/29 06:14:46;;;;;;;12.32;10.45;;;;;;;10.14;72.85;102064.78;4978051;28;20014;-70
2022/04/29 06:17:12;;;;;;;15.77;10.65;;;;;;;10.14;71.57;102062.97;4960058;28;20241;-71
2022/04/29 06:19:38;;;;;;;14.40;10.40;;;;;;;10.19;71.44;102065.28;4942892;28;20099;-70
2022/04/29 06:22:04;;;;;;;14.65;10.35;;;;;;;10.31;70.04;102053.91;4940512;28;20030;-71
2022/04/29 06:24:30;;;;;;;14.93;10.45;;;;;;;10.50;70.86;102057.16;4938965;28;20011;-70
2022/04/29 06:26:55;;;;;;;15.48;10.68;;;;;;;10.62;68.92;102061.63;4992144;28;20580;-71
2022/04/29 06:29:21;;;;;;;15.52;10.55;;;;;;;10.80;68.47;102063.00;4986929;28;20086;-71
2022/04/29 06:31:46;;;;;;;14.93;10.55;;;;;;;10.94;67.49;102072.63;4940689;28;20884;-71
2022/04/29 06:34:11;;;;;;;12.15;10.45;;;;;;;11.09;66.88;102075.16;4963367;28;20336;-71
2022/04/29 06:36:37;;;;;;;11.07;9.70;;;;;;;11.28;65.88;102074.69;4965211;28;20106;-71
2022/04/29 06:39:02;;;;;;;13.68;9.93;;;;;;;11.39;64.79;102074.78;5000156;28;20013;-71
2022/04/29 06:41:28;;;;;;;11.18;10.00;;;;;;;11.51;64.75;102078.38;5018001;28;20619;-71
2022/04/29 06:43:53;;;;;;;16.50;10.63;;;;;;;11.39;64.34;102084.56;4981903;28;20466;-71
2022/04/29 06:46:19;;;;;;;14.38;9.75;;;;;;;11.47;64.83;102083.03;4971948;28;20030;-71
2022/04/29 06:48:45;;;;;;;11.65;9.90;;;;;;;11.51;65.16;102081.88;4943501;28;20030;-71
2022/04/29 06:51:11;;;;;;;16.08;10.10;;;;;;;11.55;64.00;102087.81;4985794;28;20704;-70
2022/04/29 06:53:39;;;;;;;14.80;9.93;;;;;;;11.66;64.55;102092.31;4967278;27;20329;-71
2022/04/29 06:56:05;;;;;;;14.82;10.43;;;;;;;11.75;64.39;102093.50;5014815;28;20129;-71
2022/04/29 06:58:31;;;;;;;14.27;10.32;;;;;;;11.87;63.82;102092.56;4979210;28;20198;-70
2022/04/29 07:00:56;;;;;;;13.63;10.05;;;;;;;11.86;63.97;102098.84;4963661;28;20900;-71
2022/04/29 07:03:22;;;;;;;12.55;10.18;;;;;;;11.87;63.09;102092.56;4976024;28;20447;-71
2022/04/29 07:05:51;;;;;;;14.15;10.13;;;;;;;12.00;63.38;102093.41;4977537;28;20078;-71
2022/04/29 07:08:16;;;;;;;14.82;9.82;;;;;;;12.10;62.54;102093.59;4962575;28;20090;-71
2022/04/29 07:10:42;;;;;;;12.68;9.80;;;;;;;12.18;62.73;102098.31;4967470;28;20536;-71
2022/04/29 07:13:09;;;;;;;11.25;9.63;;;;;;;12.36;61.65;102093.44;4983889;28;20032;-71
2022/04/29 07:15:37;;;;;;;10.93;9.80;;;;;;;12.42;60.64;102097.44;4981604;28;20028;-71
2022/04/29 07:18:02;;;;;;;13.15;9.45;;;;;;;12.58;60.76;102105.09;4981449;28;20048;-71
2022/04/29 07:20:28;;;;;;;13.77;10.15;;;;;;;12.71;60.52;102101.38;4978928;28;20533;-71
2022/04/29 07:22:53;;;;;;;16.95;10.00;;;;;;;12.74;61.32;102107.44;4996790;28;20338;-70
2022/04/29 07:25:19;;;;;;;12.73;9.73;;;;;;;12.71;61.84;102103.19;4983456;27;20013;-71
2022/04/29 07:27:45;;;;;;;12.38;9.55;;;;;;;12.84;61.60;102092.47;5000452;28;20837;-72
2022/04/29 07:30:11;;;;;;;20.85;10.68;;;;;;;12.86;59.53;102085.22;4967518;28;20136;-71
2022/04/29 07:32:37;;;;;;;11.27;10.02;;;;;;;13.03;59.30;102086.59;4982996;28;20865;-71
2022/04/29 07:43:14;;;;;;;15.13;10.27;;;;;;;13.32;58.22;102086.94;4972399;28;20037;-71
2022/04/29 07:45:39;;;;;;;17.77;10.13;;;;;;;13.53;57.89;102083.56;4982046;28;20881;-71
2022/04/29 07:48:06;;;;;;;10.95;9.63;;;;;;;13.74;57.86;102081.81;4965532;28;20018;-72
2022/04/29 07:50:35;;;;;;;14.75;9.88;;;;;;;13.87;56.85;102070.19;4963667;28;20847;-72
2022/04/29 07:53:01;;;;;;;13.48;9.65;;;;;;;13.92;57.42;102078.66;4964029;28;20014;-72
2022/04/29 07:55:26;;;;;;;10.90;9.80;;;;;;;13.90;57.29;102076.13;4962944;28;20498;-71
2022/04/29 07:57:52;;;;;;;12.40;9.57;;;;;;;14.00;57.30;102076.22;4946808;28;20061;-71
2022/04/29 08:00:17;;;;;;;11.15;9.70;;;;;;;14.09;56.81;102075.44;4965636;28;20030;-71
2022/04/29 08:02:43;;;;;;;12.88;9.48;;;;;;;14.22;57.60;102077.09;4950338;28;20025;-71
2022/04/29 08:05:08;;;;;;;13.13;9.75;;;;;;;14.43;57.75;102083.25;4971583;28;20453;-72
2022/04/29 08:07:34;;;;;;;15.13;10.30;;;;;;;14.66;55.75;102072.50;4933490;28;20011;-71
2022/04/29 08:09:59;;;;;;;14.13;9.77;;;;;;;14.79;56.06;102082.13;4971269;28;20073;-71
2022/04/29 08:12:26;;;;;;;12.73;9.45;;;;;;;14.94;54.90;102075.47;4986593;28;20010;-71
2022/04/29 08:14:52;;;;;;;12.98;9.57;;;;;;;15.02;53.88;102077.50;4964428;28;20521;-72
2022/04/29 08:17:19;;;;;;;12.63;9.30;;;;;;;14.90;54.63;102082.03;4973057;28;20002;-71
2022/04/29 08:19:44;;;;;;;9.75;8.88;;;;;;;14.85;53.27;102076.25;4981161;28;20104;-70
2022/04/29 08:22:10;;;;;;;13.07;9.57;;;;;;;15.04;53.67;102075.53;4973645;28;21029;-71
2022/04/29 08:24:35;;;;;;;11.27;9.75;;;;;;;15.15;53.56;102071.94;5001538;28;20405;-72
2022/04/29 08:27:01;;;;;;;14.40;10.07;;;;;;;15.15;53.64;102071.94;5006014;28;20477;-72
2022/04/29 08:29:26;;;;;;;13.68;9.50;;;;;;;15.48;54.21;102067.25;4955104;28;20099;-72
2022/04/29 08:31:52;;;;;;;10.77;9.38;;;;;;;15.87;52.96;102081.53;4959846;28;20050;-72
2022/04/29 08:34:17;;;;;;;11.43;8.43;;;;;;;16.02;53.31;102084.66;4981170;28;20026;-71
2022/04/29 08:36:43;;;;;;;11.95;8.63;;;;;;;15.78;51.54;102087.69;4997493;28;20617;-71
2022/04/29 08:39:09;;;;;;;8.95;8.05;;;;;;;16.00;50.02;102077.75;4947166;28;20268;-72
2022/04/29 08:41:36;;;;;;;10.98;8.32;;;;;;;15.92;49.20;102071.28;4950769;28;20010;-72
2022/04/29 08:44:02;;;;;;;10.45;8.60;;;;;;;15.58;51.06;102071.63;4976235;28;20143;-71
2022/04/29 08:46:27;;;;;;;10.75;8.25;;;;;;;15.53;49.29;102076.53;4951721;28;21033;-72
2022/04/29 08:48:53;;;;;;;12.13;8.38;;;;;;;15.51;49.31;102082.97;4978850;28;20085;-71
2022/04/29 08:51:18;;;;;;;9.10;7.72;;;;;;;15.69;48.97;102072.50;4978100;28;20020;-72
2022/04/29 08:53:44;;;;;;;10.60;7.85;;;;;;;15.65;49.11;102066.56;4980901;28;20125;-72
2022/04/29 08:58:53;;;;;;;9.57;7.85;;;;;;;15.42;50.07;102064.13;4978809;28;20024;-71
2022/04/29 09:01:20;;;;;;;8.70;7.80;;;;;;;15.78;49.40;102069.00;4977063;28;20188;-71
2022/04/29 09:03:46;;;;;;;11.75;8.20;;;;;;;16.06;48.42;102064.69;4971879;28;20041;-72
2022/04/29 09:06:12;;;;;;;12.13;8.98;;;;;;;16.23;50.24;102062.28;4979611;28;20082;-72
2022/04/29 09:08:38;;;;;;;11.88;9.88;;;;;;;16.29;49.02;102072.44;4966423;28;20021;-71
2022/04/29 09:11:05;;;;;;;14.52;9.98;;;;;;;16.26;49.46;102065.53;5014061;28;20006;-72
2022/04/29 09:13:31;;;;;;;14.60;9.98;;;;;;;16.49;49.61;102062.56;4980619;28;20017;-72
2022/04/29 09:15:58;;;;;;;12.25;10.13;;;;;;;16.44;50.17;102063.00;4980462;28;20021;-71
2022/04/29 09:18:51;;;;;;;12.90;10.65;;;;;;;16.27;49.52;102063.69;4998323;28;20036;-73
2022/04/29 09:21:17;;;;;;;14.07;10.95;;;;;;;16.41;50.02;102062.41;4966309;28;20113;-73
2022/04/29 09:24:00;;;;;;;14.20;10.73;;;;;;;16.53;49.66;102069.28;4998381;28;20021;-72
2022/04/29 09:26:27;;;;;;;12.50;10.90;;;;;;;16.68;50.18;102074.19;4957779;28;20013;-72
2022/04/29 09:28:53;;;;;;;12.45;11.27;;;;;;;16.94;50.36;102072.59;4981324;28;20176;-72
2022/04/29 09:31:19;;;;;;;13.70;11.60;;;;;;;16.86;49.43;102069.75;4986770;28;20858;-72
2022/04/29 09:33:57;;;;;;;14.05;11.88;;;;;;;16.80;48.91;102079.22;4952938;28;20368;-73
2022/04/29 09:36:24;;;;;;;12.95;11.52;;;;;;;16.99;48.74;102072.13;4964296;28;20014;-73
2022/04/29 09:41:38;;;;;;;16.05;12.40;;;;;;;16.68;49.71;102064.31;4970108;28;20032;-73
2022/04/29 09:44:03;;;;;;;13.90;12.50;;;;;;;16.41;50.49;102060.59;4965243;28;20049;-72
2022/04/29 09:46:29;;;;;;;14.25;12.75;;;;;;;16.78;51.61;102059.81;4967745;28;20291;-71
2022/04/29 09:48:56;;;;;;;17.38;12.48;;;;;;;16.94;50.38;102058.38;5018157;27;20017;-72
2022/04/29 09:51:43;;;;;;;16.20;13.15;;;;;;;17.36;49.56;102052.56;4997112;27;22118;-74
2022/04/29 09:54:18;;;;;;;18.10;14.05;;;;;;;17.48;49.39;102063.88;4979360;28;20026;-72
2022/04/29 09:57:12;;;;;;;23.80;13.95;;;;;;;17.93;49.41;102059.53;4977994;28;20125;-73
2022/04/29 09:59:40;;;;;;;17.80;13.23;;;;;;;18.44;48.10;102049.06;5003238;28;20125;-72
2022/04/29 10:02:07;;;;;;;17.67;13.68;;;;;;;18.66;45.40;102036.97;5021655;27;20152;-72
2022/04/29 10:04:35;;;;;;;15.48;13.45;;;;;;;18.96;46.35;102035.66;4977900;28;20010;-72
2022/04/29 10:07:05;;;;;;;16.17;13.82;;;;;;;19.46;45.98;102041.19;4947289;28;20373;-73
2022/04/29 10:09:32;;;;;;;15.23;13.73;;;;;;;19.56;45.54;102040.06;4982436;28;20919;-71
2022/04/29 10:11:58;;;;;;;15.00;13.50;;;;;;;19.26;45.04;102040.63;4945311;28;20108;-72
2022/04/29 10:14:24;;;;;;;18.08;14.25;;;;;;;19.19;45.85;102033.25;4961910;28;20013;-72
2022/04/29 10:21:15;;;;;;;18.20;13.95;;;;;;;18.90;44.36;102033.63;4984437;28;20033;-71
2022/04/29 10:22:19;;;;;;;20.77;14.80;;;;;;;18.42;46.24;102045.72;4990660;28;20856;-73
2022/04/29 10:24:44;;;;;;;16.98;13.38;;;;;;;18.14;45.91;102045.81;4991240;28;20025;-72
2022/04/29 10:27:10;;;;;;;17.20;13.65;;;;;;;17.94;47.59;102048.66;4983310;28;20013;-73
2022/04/29 10:29:35;;;;;;;20.63;14.57;;;;;;;18.10;47.68;102045.28;4981270;28;20049;-72
2022/04/29 10:32:05;;;;;;;18.33;12.75;;;;;;;18.16;47.51;102039.31;4950318;28;20026;-71
2022/04/29 10:34:31;;;;;;;18.70;12.90;;;;;;;17.73;47.42;102038.22;4975635;28;20033;-72
2022/04/29 10:36:57;;;;;;;22.63;13.60;;;;;;;17.99;47.37;102045.53;4982265;28;20049;-72
2022/04/29 10:39:22;;;;;;;15.80;13.48;;;;;;;17.84;48.44;102048.72;4944814;28;20136;-70
2022/04/29 10:42:01;;;;;;;19.10;13.25;;;;;;;17.90;47.41;102043.75;4944718;28;20921;-71
2022/04/29 10:44:27;;;;;;;15.38;12.27;;;;;;;18.15;49.10;102034.13;4960356;28;20783;-72
2022/04/29 10:46:53;;;;;;;16.13;13.55;;;;;;;18.30;47.82;102035.25;4984087;28;20028;-71
2022/04/29 10:49:18;;;;;;;16.60;13.68;;;;;;;18.34;47.55;102033.91;4944929;28;20014;-71
2022/04/29 10:51:51;;;;;;;14.38;12.10;;;;;;;18.48;46.45;102034.34;4977488;28;20005;-71
2022/04/29 10:54:53;;;;;;;13.82;12.10;;;;;;;18.57;45.99;102037.91;4963428;28;20444;-72
2022/04/29 10:57:18;;;;;;;14.10;11.32;;;;;;;18.76;46.11;102032.34;4969733;28;20191;-72
2022/04/29 11:00:00;;;;;;;14.73;11.25;;;;;;;18.74;45.33;102033.50;4960756;28;20017;-73
2022/04/29 11:02:29;;;;;;;15.95;10.73;;;;;;;18.86;45.96;102027.69;4948080;28;20033;-72
2022/04/29 11:04:56;;;;;;;14.00;10.75;;;;;;;19.08;45.06;102030.00;4996669;28;20835;-73
2022/04/29 11:07:37;;;;;;;13.93;10.55;;;;;;;19.68;43.84;102026.31;4980069;28;20129;-72
2022/04/29 11:10:06;;;;;;;11.80;10.00;;;;;;;20.53;42.23;102017.91;5015272;28;20188;-72
2022/04/29 11:12:32;;;;;;;10.45;9.43;;;;;;;21.36;41.24;102017.59;4978282;28;20025;-72
2022/04/29 11:15:05;;;;;;;12.50;9.15;;;;;;;21.60;39.49;102017.50;4995249;28;20096;-71
2022/04/29 11:17:34;;;;;;;13.20;9.15;;;;;;;21.81;37.91;102021.38;5016967;28;20829;-72
2022/04/29 11:20:23;;;;;;;10.43;9.02;;;;;;;21.68;37.50;102015.75;4978335;28;20116;-72
2022/04/29 11:25:57;;;;;;;12.35;9.73;;;;;;;22.23;35.95;102006.53;4983126;28;20044;-71
2022/04/29 11:28:23;;;;;;;;;;;;;;;21.83;37.08;102005.88;4962362;27;20426;-72
2022/04/29 11:30:49;;;;;;;10.03;8.77;;;;;;;22.24;37.41;101997.44;4989625;28;19911;-72
2022/04/29 11:33:14;;;;;;;11.32;8.77;;;;;;;22.38;37.09;101993.09;4960993;28;20717;-71
2022/04/29 11:35:40;;;;;;;12.88;8.75;;;;;;;21.83;37.90;101992.41;4964873;28;20017;-72
2022/04/29 11:38:08;;;;;;;17.33;9.15;;;;;;;22.21;37.68;101984.31;4961170;28;21024;-71
2022/04/29 11:40:36;;;;;;;9.20;8.25;;;;;;;22.18;37.93;101976.59;4980740;28;20024;-71